sensor_id;sensor_type;location;lat;lon;timestamp;pressure;altitude;pressure_sealevel;temperature;humidity
20145;BME280;10233;50.814;6.590;2023-08-20T00:00:47;100670.84;;;21.18;100.00
20145;BME280;10233;50.814;6.590;2023-08-20T00:01:49;100676.50;;;21.17;100.00
20145;BME280;10233;50.814;6.590;2023-08-20T00:03:10;100675.97;;;21.15;100.00
20145;BME280;10233;50.814;6.590;2023-08-20T00:04:12;100673.75;;;21.12;100.00
20145;BME280;10233;50.814;6.590;2023-08-20T00:05:13;100670.22;;;21.11;100.00
20145;BME280;10233;50.814;6.590;2023-08-20T00:06:14;100674.03;;;21.10;100.00
20145;BME280;10233;50.814;6.590;2023-08-20T00:07:15;100679.50;;;21.20;100.00
20145;BME280;10233;50.814;6.590;2023-08-20T00:08:18;100683.28;;;21.19;100.00
20145;BME280;10233;50.814;6.590;2023-08-20T00:09:19;100683.53;;;21.18;100.00
20145;BME280;10233;50.814;6.590;2023-08-20T00:10:19;100678.63;;;21.10;100.00
20145;BME280;10233;50.814;6.590;2023-08-20T00:11:20;100681.63;;;21.13;100.00
20145;BME280;10233;50.814;6.590;2023-08-20T00:12:20;100678.34;;;21.11;100.00
20145;BME280;10233;50.814;6.590;2023-08-20T00:13:21;100684.81;;;21.05;100.00
20145;BME280;10233;50.814;6.590;2023-08-20T00:14:51;100688.84;;;21.03;100.00
20145;BME280;10233;50.814;6.590;2023-08-20T00:15:52;100692.38;;;21.03;100.00
20145;BME280;10233;50.814;6.590;2023-08-20T00:16:53;100686.34;;;20.96;100.00
20145;BME280;10233;50.814;6.590;2023-08-20T00:17:54;100687.13;;;20.92;100.00
20145;BME280;10233;50.814;6.590;2023-08-20T00:18:58;100690.56;;;20.87;100.00
20145;BME280;10233;50.814;6.590;2023-08-20T00:19:59;100686.25;;;20.86;100.00
20145;BME280;10233;50.814;6.590;2023-08-20T00:20:59;100695.97;;;20.87;100.00
20145;BME280;10233;50.814;6.590;2023-08-20T00:22:01;100700.66;;;20.92;100.00
20145;BME280;10233;50.814;6.590;2023-08-20T00:23:01;100698.00;;;20.97;100.00
20145;BME280;10233;50.814;6.590;2023-08-20T00:24:02;100700.19;;;21.00;100.00
20145;BME280;10233;50.814;6.590;2023-08-20T00:25:03;100702.63;;;21.01;100.00
20145;BME280;10233;50.814;6.590;2023-08-20T00:26:07;100707.53;;;21.04;100.00
20145;BME280;10233;50.814;6.590;2023-08-20T00:27:08;100706.69;;;21.04;100.00
20145;BME280;10233;50.814;6.590;2023-08-20T00:28:08;100712.09;;;21.04;100.00
20145;BME280;10233;50.814;6.590;2023-08-20T00:29:08;100707.53;;;21.04;100.00
20145;BME280;10233;50.814;6.590;2023-08-20T00:30:10;100711.34;;;21.08;100.00
20145;BME280;10233;50.814;6.590;2023-08-20T00:31:11;100705.38;;;21.06;100.00
20145;BME280;10233;50.814;6.590;2023-08-20T00:32:11;100707.53;;;21.04;100.00
20145;BME280;10233;50.814;6.590;2023-08-20T00:33:12;100708.56;;;20.98;100.00
20145;BME280;10233;50.814;6.590;2023-08-20T00:34:13;100704.28;;;21.02;100.00
20145;BME280;10233;50.814;6.590;2023-08-20T00:35:14;100700.19;;;21.00;100.00
20145;BME280;10233;50.814;6.590;2023-08-20T00:36:15;100703.47;;;21.07;100.00
20145;BME280;10233;50.814;6.590;2023-08-20T00:37:16;100704.81;;;21.04;100.00
20145;BME280;10233;50.814;6.590;2023-08-20T00:38:17;100704.31;;;21.07;100.00
20145;BME280;10233;50.814;6.590;2023-08-20T00:39:18;100702.44;;;21.13;100.00
20145;BME280;10233;50.814;6.590;2023-08-20T00:40:18;100703.56;;;21.17;100.00
20145;BME280;10233;50.814;6.590;2023-08-20T00:41:19;100705.47;;;21.21;100.00
20145;BME280;10233;50.814;6.590;2023-08-20T00:42:19;100706.03;;;21.23;100.00
20145;BME280;10233;50.814;6.590;2023-08-20T00:43:20;100702.81;;;21.26;100.00
20145;BME280;10233;50.814;6.590;2023-08-20T00:44:21;100705.00;;;21.29;100.00
20145;BME280;10233;50.814;6.590;2023-08-20T00:45:23;100702.03;;;21.31;100.00
20145;BME280;10233;50.814;6.590;2023-08-20T00:46:24;100705.56;;;21.31;100.00
20145;BME280;10233;50.814;6.590;2023-08-20T00:47:24;100706.66;;;21.35;100.00
20145;BME280;10233;50.814;6.590;2023-08-20T00:48:25;100706.41;;;21.37;100.00
20145;BME280;10233;50.814;6.590;2023-08-20T00:49:26;100712.66;;;21.37;100.00
20145;BME280;10233;50.814;6.590;2023-08-20T00:50:27;100711.03;;;21.36;100.00
20145;BME280;10233;50.814;6.590;2023-08-20T00:51:28;100709.94;;;21.37;100.00
20145;BME280;10233;50.814;6.590;2023-08-20T00:52:29;100706.69;;;21.40;100.00
20145;BME280;10233;50.814;6.590;2023-08-20T00:53:29;100705.63;;;21.41;100.00
20145;BME280;10233;50.814;6.590;2023-08-20T00:54:31;100705.38;;;21.48;100.00
20145;BME280;10233;50.814;6.590;2023-08-20T00:55:32;100709.19;;;21.52;100.00
20145;BME280;10233;50.814;6.590;2023-08-20T00:56:33;100698.13;;;21.53;100.00
20145;BME280;10233;50.814;6.590;2023-08-20T00:57:34;100691.63;;;21.54;100.00
20145;BME280;10233;50.814;6.590;2023-08-20T00:58:35;100695.69;;;21.57;100.00
20145;BME280;10233;50.814;6.590;2023-08-20T00:59:36;100690.28;;;21.57;100.00
20145;BME280;10233;50.814;6.590;2023-08-20T01:00:37;100695.69;;;21.57;100.00
20145;BME280;10233;50.814;6.590;2023-08-20T01:01:37;100696.75;;;21.51;100.00
20145;BME280;10233;50.814;6.590;2023-08-20T01:02:39;100697.25;;;21.48;100.00
20145;BME280;10233;50.814;6.590;2023-08-20T01:03:40;100689.44;;;21.46;100.00
20145;BME280;10233;50.814;6.590;2023-08-20T01:04:41;100694.28;;;21.44;100.00
20145;BME280;10233;50.814;6.590;2023-08-20T01:05:50;100690.75;;;21.39;100.00
20145;BME280;10233;50.814;6.590;2023-08-20T01:08:22;100689.94;;;21.43;100.00
20145;BME280;10233;50.814;6.590;2023-08-20T01:11:57;100680.69;;;21.34;100.00
20145;BME280;10233;50.814;6.590;2023-08-20T01:13:00;100683.38;;;21.34;100.00
20145;BME280;10233;50.814;6.590;2023-08-20T01:14:01;100688.69;;;21.19;100.00
20145;BME280;10233;50.814;6.590;2023-08-20T01:15:01;100687.19;;;20.97;100.00
20145;BME280;10233;50.814;6.590;2023-08-20T01:16:02;100683.75;;;20.80;100.00
20145;BME280;10233;50.814;6.590;2023-08-20T01:17:03;100685.41;;;20.81;100.00
20145;BME280;10233;50.814;6.590;2023-08-20T01:18:03;100681.25;;;20.68;100.00
20145;BME280;10233;50.814;6.590;2023-08-20T01:19:05;100688.31;;;20.74;100.00
20145;BME280;10233;50.814;6.590;2023-08-20T01:20:08;100686.41;;;20.75;100.00
20145;BME280;10233;50.814;6.590;2023-08-20T01:21:26;100683.97;;;20.73;100.00
20145;BME280;10233;50.814;6.590;2023-08-20T01:24:23;100678.91;;;20.50;100.00
20145;BME280;10233;50.814;6.590;2023-08-20T01:28:28;100686.94;;;20.45;100.00
20145;BME280;10233;50.814;6.590;2023-08-20T01:29:29;100701.44;;;20.34;100.00
20145;BME280;10233;50.814;6.590;2023-08-20T01:30:31;100693.81;;;20.31;100.00
20145;BME280;10233;50.814;6.590;2023-08-20T01:31:32;100698.22;;;20.37;100.00
20145;BME280;10233;50.814;6.590;2023-08-20T01:32:34;100696.34;;;20.38;100.00
20145;BME280;10233;50.814;6.590;2023-08-20T01:33:36;100695.75;;;20.36;100.00
20145;BME280;10233;50.814;6.590;2023-08-20T01:34:36;100690.09;;;20.37;100.00
20145;BME280;10233;50.814;6.590;2023-08-20T01:35:37;100687.09;;;20.34;100.00
20145;BME280;10233;50.814;6.590;2023-08-20T01:36:37;100691.69;;;20.33;100.00
20145;BME280;10233;50.814;6.590;2023-08-20T01:37:38;100694.31;;;20.28;100.00
20145;BME280;10233;50.814;6.590;2023-08-20T01:38:39;100704.63;;;20.31;100.00
20145;BME280;10233;50.814;6.590;2023-08-20T01:39:39;100698.09;;;20.27;100.00
20145;BME280;10233;50.814;6.590;2023-08-20T01:40:40;100702.47;;;20.33;100.00
20145;BME280;10233;50.814;6.590;2023-08-20T01:41:40;100697.84;;;20.29;100.00
20145;BME280;10233;50.814;6.590;2023-08-20T01:42:41;100699.47;;;20.30;100.00
20145;BME280;10233;50.814;6.590;2023-08-20T01:43:41;100698.94;;;20.28;100.00
20145;BME280;10233;50.814;6.590;2023-08-20T01:44:42;100701.75;;;20.38;100.00
20145;BME280;10233;50.814;6.590;2023-08-20T01:45:42;100704.19;;;20.39;100.00
20145;BME280;10233;50.814;6.590;2023-08-20T01:46:43;100698.75;;;20.34;100.00
20145;BME280;10233;50.814;6.590;2023-08-20T01:47:43;100711.41;;;20.34;100.00
20145;BME280;10233;50.814;6.590;2023-08-20T01:48:44;100705.53;;;20.37;100.00
20145;BME280;10233;50.814;6.590;2023-08-20T01:49:45;100705.53;;;20.37;100.00
20145;BME280;10233;50.814;6.590;2023-08-20T01:50:45;100708.41;;;20.30;100.00
20145;BME280;10233;50.814;6.590;2023-08-20T01:51:46;100711.38;;;20.29;100.00
20145;BME280;10233;50.814;6.590;2023-08-20T01:52:46;100714.31;;;20.27;100.00
20145;BME280;10233;50.814;6.590;2023-08-20T01:53:47;100714.31;;;20.27;100.00
20145;BME280;10233;50.814;6.590;2023-08-20T01:54:48;100722.94;;;20.24;100.00
20145;BME280;10233;50.814;6.590;2023-08-20T01:55:49;100717.78;;;20.23;100.00
20145;BME280;10233;50.814;6.590;2023-08-20T01:56:49;100719.78;;;20.32;100.00
20145;BME280;10233;50.814;6.590;2023-08-20T01:57:50;100717.91;;;20.33;100.00
20145;BME280;10233;50.814;6.590;2023-08-20T01:58:50;100714.38;;;20.32;100.00
20145;BME280;10233;50.814;6.590;2023-08-20T01:59:51;100714.63;;;20.31;100.00
20145;BME280;10233;50.814;6.590;2023-08-20T02:00:52;100716.00;;;20.33;100.00
20145;BME280;10233;50.814;6.590;2023-08-20T02:01:52;100716.16;;;20.22;100.00
20145;BME280;10233;50.814;6.590;2023-08-20T02:02:53;100716.16;;;20.22;100.00
20145;BME280;10233;50.814;6.590;2023-08-20T02:03:53;100720.78;;;20.26;100.00
20145;BME280;10233;50.814;6.590;2023-08-20T02:04:54;100721.03;;;20.25;100.00
20145;BME280;10233;50.814;6.590;2023-08-20T02:05:54;100715.94;;;20.28;100.00
20145;BME280;10233;50.814;6.590;2023-08-20T02:06:55;100721.91;;;20.30;100.00
20145;BME280;10233;50.814;6.590;2023-08-20T02:07:55;100718.16;;;20.31;100.00
20145;BME280;10233;50.814;6.590;2023-08-20T02:08:56;100716.28;;;20.32;100.00
20145;BME280;10233;50.814;6.590;2023-08-20T02:09:57;100716.38;;;20.42;100.00
20145;BME280;10233;50.814;6.590;2023-08-20T02:11:04;100712.03;;;20.41;100.00
20145;BME280;10233;50.814;6.590;2023-08-20T02:12:05;100716.09;;;20.43;100.00
20145;BME280;10233;50.814;6.590;2023-08-20T02:13:06;100717.03;;;20.54;100.00
20145;BME280;10233;50.814;6.590;2023-08-20T02:14:07;100708.97;;;20.59;100.00
20145;BME280;10233;50.814;6.590;2023-08-20T02:15:08;100719.59;;;20.65;100.00
20145;BME280;10233;50.814;6.590;2023-08-20T02:16:09;100722.03;;;20.67;100.00
20145;BME280;10233;50.814;6.590;2023-08-20T02:17:11;100715.06;;;20.71;100.00
20145;BME280;10233;50.814;6.590;2023-08-20T02:18:12;100709.38;;;20.72;100.00
20145;BME280;10233;50.814;6.590;2023-08-20T02:19:13;100716.72;;;20.77;100.00
20145;BME280;10233;50.814;6.590;2023-08-20T02:20:14;100712.13;;;20.77;100.00
20145;BME280;10233;50.814;6.590;2023-08-20T02:21:14;100712.13;;;20.77;100.00
20145;BME280;10233;50.814;6.590;2023-08-20T02:22:15;100713.97;;;20.72;100.00
20145;BME280;10233;50.814;6.590;2023-08-20T02:23:15;100716.88;;;20.65;100.00
20145;BME280;10233;50.814;6.590;2023-08-20T02:24:16;100712.44;;;20.54;100.00
20145;BME280;10233;50.814;6.590;2023-08-20T02:25:16;100727.53;;;20.50;100.00
20145;BME280;10233;50.814;6.590;2023-08-20T02:26:17;100725.28;;;20.42;100.00
20145;BME280;10233;50.814;6.590;2023-08-20T02:27:17;100723.22;;;20.49;100.00
20145;BME280;10233;50.814;6.590;2023-08-20T02:28:18;100721.84;;;20.47;100.00
20145;BME280;10233;50.814;6.590;2023-08-20T02:29:18;100720.75;;;20.48;100.00
20145;BME280;10233;50.814;6.590;2023-08-20T02:30:19;100709.81;;;20.59;100.00
20145;BME280;10233;50.814;6.590;2023-08-20T02:31:20;100723.97;;;20.71;100.00
20145;BME280;10233;50.814;6.590;2023-08-20T02:32:22;100721.75;;;20.90;100.00
20145;BME280;10233;50.814;6.590;2023-08-20T02:33:22;100728.38;;;21.09;100.00
20145;BME280;10233;50.814;6.590;2023-08-20T02:34:22;100730.13;;;21.20;100.00
20145;BME280;10233;50.814;6.590;2023-08-20T02:35:23;100735.03;;;21.28;100.00
20145;BME280;10233;50.814;6.590;2023-08-20T02:36:25;100737.25;;;21.36;100.00
20145;BME280;10233;50.814;6.590;2023-08-20T02:37:25;100727.25;;;21.36;100.00
20145;BME280;10233;50.814;6.590;2023-08-20T02:38:26;100726.72;;;21.39;100.00
20145;BME280;10233;50.814;6.590;2023-08-20T02:39:27;100731.84;;;21.36;100.00
20145;BME280;10233;50.814;6.590;2023-08-20T02:40:27;100736.38;;;21.30;100.00
20145;BME280;10233;50.814;6.590;2023-08-20T02:41:28;100734.47;;;21.26;100.00
20145;BME280;10233;50.814;6.590;2023-08-20T02:42:28;100728.19;;;21.20;100.00
20145;BME280;10233;50.814;6.590;2023-08-20T02:43:29;100724.41;;;21.21;100.00
20145;BME280;10233;50.814;6.590;2023-08-20T02:44:29;100733.66;;;21.25;100.00
20145;BME280;10233;50.814;6.590;2023-08-20T02:45:30;100723.41;;;21.27;100.00
20145;BME280;10233;50.814;6.590;2023-08-20T02:46:31;100726.66;;;21.29;100.00
20145;BME280;10233;50.814;6.590;2023-08-20T02:47:32;100723.44;;;21.32;100.00
20145;BME280;10233;50.814;6.590;2023-08-20T02:48:35;100729.88;;;21.26;100.00
20145;BME280;10233;50.814;6.590;2023-08-20T02:49:36;100731.53;;;21.27;100.00
20145;BME280;10233;50.814;6.590;2023-08-20T02:50:37;100726.63;;;21.24;100.00
20145;BME280;10233;50.814;6.590;2023-08-20T02:51:37;100728.84;;;21.32;100.00
20145;BME280;10233;50.814;6.590;2023-08-20T02:52:38;100733.19;;;21.33;100.00
20145;BME280;10233;50.814;6.590;2023-08-20T02:53:38;100732.69;;;21.41;100.00
20145;BME280;10233;50.814;6.590;2023-08-20T02:54:39;100737.59;;;21.49;100.00
20145;BME280;10233;50.814;6.590;2023-08-20T02:55:39;100728.47;;;21.60;100.00
20145;BME280;10233;50.814;6.590;2023-08-20T02:56:40;100718.84;;;21.74;100.00
20145;BME280;10233;50.814;6.590;2023-08-20T02:57:40;100721.50;;;21.69;100.00
20145;BME280;10233;50.814;6.590;2023-08-20T02:58:41;100722.59;;;21.68;100.00
20145;BME280;10233;50.814;6.590;2023-08-20T02:59:41;100727.09;;;21.58;100.00
20145;BME280;10233;50.814;6.590;2023-08-20T03:00:42;100724.63;;;21.46;100.00
20145;BME280;10233;50.814;6.590;2023-08-20T03:01:45;100732.38;;;21.38;100.00
20145;BME280;10233;50.814;6.590;2023-08-20T03:02:45;100726.69;;;21.34;100.00
20145;BME280;10233;50.814;6.590;2023-08-20T03:03:46;100728.28;;;21.30;100.00
20145;BME280;10233;50.814;6.590;2023-08-20T03:04:48;100730.16;;;21.25;100.00
20145;BME280;10233;50.814;6.590;2023-08-20T03:05:48;100728.50;;;21.24;100.00
20145;BME280;10233;50.814;6.590;2023-08-20T03:06:49;100732.03;;;21.24;100.00
20145;BME280;10233;50.814;6.590;2023-08-20T03:07:49;100725.28;;;21.27;100.00
20145;BME280;10233;50.814;6.590;2023-08-20T03:08:50;100725.84;;;21.29;100.00
20145;BME280;10233;50.814;6.590;2023-08-20T03:09:50;100728.19;;;21.20;100.00
20145;BME280;10233;50.814;6.590;2023-08-20T03:10:51;100734.66;;;21.14;100.00
20145;BME280;10233;50.814;6.590;2023-08-20T03:11:51;100735.19;;;21.16;100.00
20145;BME280;10233;50.814;6.590;2023-08-20T03:12:51;100734.41;;;21.16;100.00
20145;BME280;10233;50.814;6.590;2023-08-20T03:13:52;100735.16;;;21.11;100.00
20145;BME280;10233;50.814;6.590;2023-08-20T03:14:52;100734.63;;;21.09;100.00
20145;BME280;10233;50.814;6.590;2023-08-20T03:15:53;100733.50;;;21.05;100.00
20145;BME280;10233;50.814;6.590;2023-08-20T03:16:53;100728.66;;;21.07;100.00
20145;BME280;10233;50.814;6.590;2023-08-20T03:17:54;100736.72;;;21.02;100.00
20145;BME280;10233;50.814;6.590;2023-08-20T03:18:54;100735.06;;;21.01;100.00
20145;BME280;10233;50.814;6.590;2023-08-20T03:19:59;100733.69;;;20.99;100.00
20145;BME280;10233;50.814;6.590;2023-08-20T03:20:59;100742.09;;;20.97;100.00
20145;BME280;10233;50.814;6.590;2023-08-20T03:22:00;100742.41;;;21.01;100.00
20145;BME280;10233;50.814;6.590;2023-08-20T03:23:00;100741.03;;;20.98;100.00
20145;BME280;10233;50.814;6.590;2023-08-20T03:24:01;100736.97;;;21.01;100.00
20145;BME280;10233;50.814;6.590;2023-08-20T03:25:02;100741.81;;;20.99;100.00
20145;BME280;10233;50.814;6.590;2023-08-20T03:26:03;100739.91;;;20.94;100.00
20145;BME280;10233;50.814;6.590;2023-08-20T03:27:04;100744.22;;;20.95;100.00
20145;BME280;10233;50.814;6.590;2023-08-20T03:28:04;100748.78;;;20.90;100.00
20145;BME280;10233;50.814;6.590;2023-08-20T03:29:06;100753.84;;;20.86;100.00
20145;BME280;10233;50.814;6.590;2023-08-20T03:30:07;100762.88;;;20.92;100.00
20145;BME280;10233;50.814;6.590;2023-08-20T03:31:07;100759.88;;;21.20;100.00
20145;BME280;10233;50.814;6.590;2023-08-20T03:32:12;100765.91;;;21.32;100.00
20145;BME280;10233;50.814;6.590;2023-08-20T03:33:13;100754.75;;;21.23;100.00
20145;BME280;10233;50.814;6.590;2023-08-20T03:34:15;100751.78;;;21.25;100.00
20145;BME280;10233;50.814;6.590;2023-08-20T03:35:15;100752.50;;;21.15;100.00
20145;BME280;10233;50.814;6.590;2023-08-20T03:36:16;100750.38;;;21.17;100.00
20145;BME280;10233;50.814;6.590;2023-08-20T03:37:16;100759.56;;;21.16;100.00
20145;BME280;10233;50.814;6.590;2023-08-20T03:38:17;100752.59;;;21.25;100.00
20145;BME280;10233;50.814;6.590;2023-08-20T03:39:17;100758.75;;;21.16;100.00
20145;BME280;10233;50.814;6.590;2023-08-20T03:40:18;100753.47;;;20.99;100.00
20145;BME280;10233;50.814;6.590;2023-08-20T03:41:19;100760.88;;;20.87;100.00
20145;BME280;10233;50.814;6.590;2023-08-20T03:42:19;100766.56;;;20.86;100.00
20145;BME280;10233;50.814;6.590;2023-08-20T03:43:22;100762.22;;;20.85;100.00
20145;BME280;10233;50.814;6.590;2023-08-20T03:44:23;100766.56;;;20.86;100.00
20145;BME280;10233;50.814;6.590;2023-08-20T03:45:23;100765.19;;;20.83;100.00
20145;BME280;10233;50.814;6.590;2023-08-20T03:46:24;100763.53;;;20.82;100.00
20145;BME280;10233;50.814;6.590;2023-08-20T03:47:24;100755.91;;;20.74;100.00
20145;BME280;10233;50.814;6.590;2023-08-20T03:48:26;100774.78;;;20.69;100.00
20145;BME280;10233;50.814;6.590;2023-08-20T03:49:26;100776.00;;;20.83;100.00
20145;BME280;10233;50.814;6.590;2023-08-20T03:50:27;100775.09;;;20.73;100.00
20145;BME280;10233;50.814;6.590;2023-08-20T03:51:27;100775.97;;;20.78;100.00
20145;BME280;10233;50.814;6.590;2023-08-20T03:52:27;100766.13;;;20.94;100.00
20145;BME280;10233;50.814;6.590;2023-08-20T03:53:28;100778.31;;;20.96;100.00
20145;BME280;10233;50.814;6.590;2023-08-20T03:54:29;100771.41;;;20.84;100.00
20145;BME280;10233;50.814;6.590;2023-08-20T03:55:31;100774.41;;;20.87;100.00
20145;BME280;10233;50.814;6.590;2023-08-20T03:56:31;100775.47;;;20.86;100.00
20145;BME280;10233;50.814;6.590;2023-08-20T03:57:32;100780.47;;;20.94;100.00
20145;BME280;10233;50.814;6.590;2023-08-20T03:58:32;100782.41;;;20.77;100.00
20145;BME280;10233;50.814;6.590;2023-08-20T03:59:35;100785.50;;;20.86;100.00
20145;BME280;10233;50.814;6.590;2023-08-20T04:00:36;100786.78;;;20.78;100.00
20145;BME280;10233;50.814;6.590;2023-08-20T04:01:37;100782.69;;;20.76;100.00
20145;BME280;10233;50.814;6.590;2023-08-20T04:02:37;100778.34;;;20.75;100.00
20145;BME280;10233;50.814;6.590;2023-08-20T04:03:38;100773.66;;;20.65;100.00
20145;BME280;10233;50.814;6.590;2023-08-20T04:04:39;100777.47;;;20.69;100.00
20145;BME280;10233;50.814;6.590;2023-08-20T04:05:39;100775.09;;;20.73;100.00
20145;BME280;10233;50.814;6.590;2023-08-20T04:06:40;100781.72;;;20.60;100.00
20145;BME280;10233;50.814;6.590;2023-08-20T04:07:42;100773.22;;;20.73;100.00
20145;BME280;10233;50.814;6.590;2023-08-20T04:08:42;100773.94;;;20.69;100.00
20145;BME280;10233;50.814;6.590;2023-08-20T04:09:43;100775.09;;;20.73;100.00
20145;BME280;10233;50.814;6.590;2023-08-20T04:10:44;100774.88;;;20.79;100.00
20145;BME280;10233;50.814;6.590;2023-08-20T04:11:47;100778.88;;;20.72;100.00
20145;BME280;10233;50.814;6.590;2023-08-20T04:12:47;100778.50;;;20.63;100.00
20145;BME280;10233;50.814;6.590;2023-08-20T04:13:48;100784.34;;;20.55;100.00
20145;BME280;10233;50.814;6.590;2023-08-20T04:14:49;100784.34;;;20.55;100.00
20145;BME280;10233;50.814;6.590;2023-08-20T04:15:49;100782.34;;;20.46;100.00
20145;BME280;10233;50.814;6.590;2023-08-20T04:16:50;100787.06;;;20.55;100.00
20145;BME280;10233;50.814;6.590;2023-08-20T04:17:50;100786.50;;;20.53;100.00
20145;BME280;10233;50.814;6.590;2023-08-20T04:18:51;100790.25;;;20.52;100.00
20145;BME280;10233;50.814;6.590;2023-08-20T04:19:51;100790.72;;;20.44;100.00
20145;BME280;10233;50.814;6.590;2023-08-20T04:20:52;100789.00;;;20.38;100.00
20145;BME280;10233;50.814;6.590;2023-08-20T04:21:54;100791.22;;;20.41;100.00
20145;BME280;10233;50.814;6.590;2023-08-20T04:22:55;100797.19;;;20.43;100.00
20145;BME280;10233;50.814;6.590;2023-08-20T04:23:55;100788.22;;;20.38;100.00
20145;BME280;10233;50.814;6.590;2023-08-20T04:24:56;100793.09;;;20.41;100.00
20145;BME280;10233;50.814;6.590;2023-08-20T04:25:56;100786.44;;;20.48;100.00
20145;BME280;10233;50.814;6.590;2023-08-20T04:26:57;100781.59;;;20.50;100.00
20145;BME280;10233;50.814;6.590;2023-08-20T04:28:00;100783.75;;;20.48;100.00
20145;BME280;10233;50.814;6.590;2023-08-20T04:29:01;100787.56;;;20.52;100.00
20145;BME280;10233;50.814;6.590;2023-08-20T04:30:02;100785.75;;;20.58;100.00
20145;BME280;10233;50.814;6.590;2023-08-20T04:31:03;100788.59;;;20.73;100.00
20145;BME280;10233;50.814;6.590;2023-08-20T04:32:18;100788.59;;;20.94;100.00
20145;BME280;10233;50.814;6.590;2023-08-20T04:33:18;100781.72;;;21.13;100.00
20145;BME280;10233;50.814;6.590;2023-08-20T04:34:20;100788.84;;;21.24;100.00
20145;BME280;10233;50.814;6.590;2023-08-20T04:35:24;100795.88;;;21.25;100.00
20145;BME280;10233;50.814;6.590;2023-08-20T04:36:25;100788.44;;;21.37;100.00
20145;BME280;10233;50.814;6.590;2023-08-20T04:37:26;100794.06;;;21.31;100.00
20145;BME280;10233;50.814;6.590;2023-08-20T04:38:26;100788.91;;;21.29;100.00
20145;BME280;10233;50.814;6.590;2023-08-20T04:39:27;100790.22;;;21.27;100.00
20145;BME280;10233;50.814;6.590;2023-08-20T04:40:28;100787.44;;;21.17;100.00
20145;BME280;10233;50.814;6.590;2023-08-20T04:41:28;100780.97;;;21.23;100.00
20145;BME280;10233;50.814;6.590;2023-08-20T04:42:30;100778.09;;;21.03;100.00
20145;BME280;10233;50.814;6.590;2023-08-20T04:43:31;100781.84;;;20.97;100.00
20145;BME280;10233;50.814;6.590;2023-08-20T04:44:33;100778.34;;;21.01;100.00
20145;BME280;10233;50.814;6.590;2023-08-20T04:45:34;100778.59;;;20.95;100.00
20145;BME280;10233;50.814;6.590;2023-08-20T04:46:34;100783.41;;;20.93;100.00
20145;BME280;10233;50.814;6.590;2023-08-20T04:47:35;100783.47;;;20.98;100.00
20145;BME280;10233;50.814;6.590;2023-08-20T04:48:37;100791.84;;;20.96;100.00
20145;BME280;10233;50.814;6.590;2023-08-20T04:49:38;100781.94;;;21.07;100.00
20145;BME280;10233;50.814;6.590;2023-08-20T04:50:38;100781.09;;;21.06;100.00
20145;BME280;10233;50.814;6.590;2023-08-20T04:51:39;100785.81;;;21.16;100.00
20145;BME280;10233;50.814;6.590;2023-08-20T04:52:40;100786.09;;;21.19;100.00
20145;BME280;10233;50.814;6.590;2023-08-20T04:53:41;100785.84;;;21.21;100.00
20145;BME280;10233;50.814;6.590;2023-08-20T04:54:43;100788.03;;;21.24;100.00
20145;BME280;10233;50.814;6.590;2023-08-20T04:55:43;100795.38;;;21.28;100.00
20145;BME280;10233;50.814;6.590;2023-08-20T04:56:44;100791.88;;;21.33;100.00
20145;BME280;10233;50.814;6.590;2023-08-20T04:57:44;100789.53;;;21.41;100.00
20145;BME280;10233;50.814;6.590;2023-08-20T04:58:45;100791.59;;;21.29;100.00
20145;BME280;10233;50.814;6.590;2023-08-20T04:59:49;100786.81;;;21.36;100.00
20145;BME280;10233;50.814;6.590;2023-08-20T05:00:58;100792.84;;;21.17;100.00
20145;BME280;10233;50.814;6.590;2023-08-20T05:01:58;100792.56;;;21.13;100.00
20145;BME280;10233;50.814;6.590;2023-08-20T05:03:12;100797.91;;;21.08;100.00
20145;BME280;10233;50.814;6.590;2023-08-20T05:04:13;100793.94;;;21.16;100.00
20145;BME280;10233;50.814;6.590;2023-08-20T05:05:13;100795.06;;;21.20;100.00
20145;BME280;10233;50.814;6.590;2023-08-20T05:06:14;100796.94;;;21.19;100.00
20145;BME280;10233;50.814;6.590;2023-08-20T05:07:15;100796.63;;;21.16;100.00
20145;BME280;10233;50.814;6.590;2023-08-20T05:08:16;100797.34;;;21.06;100.00
20145;BME280;10233;50.814;6.590;2023-08-20T05:09:16;100806.28;;;21.07;100.00
20145;BME280;10233;50.814;6.590;2023-08-20T05:10:18;100798.66;;;21.04;100.00
20145;BME280;10233;50.814;6.590;2023-08-20T05:11:18;100801.16;;;21.10;100.00
20145;BME280;10233;50.814;6.590;2023-08-20T05:12:19;100801.13;;;21.05;100.00
20145;BME280;10233;50.814;6.590;2023-08-20T05:13:20;100801.13;;;21.05;100.00
20145;BME280;10233;50.814;6.590;2023-08-20T05:14:23;100792.75;;;21.07;100.00
20145;BME280;10233;50.814;6.590;2023-08-20T05:15:23;100790.34;;;21.10;100.00
20145;BME280;10233;50.814;6.590;2023-08-20T05:16:25;100795.81;;;21.15;100.00
20145;BME280;10233;50.814;6.590;2023-08-20T05:17:25;100798.72;;;21.09;100.00
20145;BME280;10233;50.814;6.590;2023-08-20T05:18:25;100799.66;;;21.24;100.00
20145;BME280;10233;50.814;6.590;2023-08-20T05:19:28;100797.59;;;21.31;100.00
20145;BME280;10233;50.814;6.590;2023-08-20T05:20:29;100797.84;;;21.30;100.00
20145;BME280;10233;50.814;6.590;2023-08-20T05:21:29;100798.38;;;21.32;100.00
20145;BME280;10233;50.814;6.590;2023-08-20T05:22:30;100795.47;;;21.38;100.00
20145;BME280;10233;50.814;6.590;2023-08-20T05:23:30;100793.13;;;21.52;100.00
20145;BME280;10233;50.814;6.590;2023-08-20T05:24:31;100791.44;;;21.41;100.00
20145;BME280;10233;50.814;6.590;2023-08-20T05:25:32;100796.00;;;21.40;100.00